Airfield :
LOGIN :

Register | Disclaimer

   EN    FR    IT 

 










Legend :    VFR   Marginal VFR   IFR   Intensive IFR   Very Intensive IFR
Visi :
Ceiling :
>= 8 km
>= 3000ft
5 to 8 km
1000 to 3000 ft
1500m to 5 km
500 to 1000 ft
800 to 1500m
200 to 500 ft
< 800m
< 200 ft
Symbols :   Thunderstorms  Fog  Heavy snow  Heavy precipitations  Wind > 20 kt
SIGMETs :     Misc.  Thunderstorms  Icing  Turbulence  Mountain Waves  Volcanic Ashes







- Airport Elevation : 446 ft
- IATA code : VNE
- Download approach charts


LFRV - Vannes-Meucon

CURRENT METAR :
  • 181630Z AUTO 21004KT 160V260 CAVOK 26/16 Q1007

EXPIRED METARs :
  • 181600Z AUTO 18005KT 130V270 9999 FEW049 27/15 Q1007
  • 181530Z AUTO 13005KT 050V160 9999 BKN048 26/16 Q1008
  • 181500Z AUTO 15005KT 100V200 9999 FEW048 27/17 Q1008
  • 181430Z AUTO 18005KT 140V220 CAVOK 26/17 Q1008
  • 181400Z AUTO 17005KT 140V230 CAVOK 26/17 Q1008

TAF N/A
No reported NOTAMs for that airfield.



MET'MAP, your aeronautical weather chart ! - Copyright ORBIFLY December 2007 - Disclaimer

ORBIFLY MET'MAP TEAM :

Programming & Development : Alexandra Zaïnal
Concept & Development : Baudouin d'Aumeries
Co-Development & Prog : Marc-Olivier Méhu
Technical & hardware support : Manuel Goepfert

Contact : metmap@orbifly.com




SOURCES & CREDITS :

   NOAA